Terminal Aerodrome Forecast
Issued by NWS

Home | Current Version | Previous Version | Text Only | Print | Product List | Glossary On
Versions: 1 2 3 4 5 6 7 8 9 10 11 12 13 14 15 16 17 18 19 20 21 22 23 24 25
000
FTUS43 KPAH 170705 AAA
TAFCGI
TAF AMD
KCGI 170705Z 1707/1806 VRB03KT P6SM SCT250
      TEMPO 1707/1710 4SM BR
     FM171500 16010KT P6SM SCT060 BKN090
     FM171900 18015G25KT P6SM SCT030 OVC060
     FM180200 19020G30KT P6SM VCSH SCT015 OVC030=

USA.gov is the U.S. government's official web portal to all federal, state and local government web resources and services.